METAR Data
IDs: Format: Raw Decoded Include TAF

Data at: 1816 UTC 25 Mar 2019

KLFK 251801Z AUTO 31008KT 10SM SCT015 BKN041 OVC048 22/18 A3012 RMK AO2 T02170178
KLFK 251753Z AUTO 33008KT 10SM BKN015 OVC039 22/18 A3012 RMK AO2 SLP198 60004 T02170178 10217 20167 51008
KLFK 251703Z AUTO 34007KT 10SM OVC016 21/17 A3013 RMK AO2 LTG DSNT SW T02060172
KLFK 251653Z AUTO 34007KT 10SM BKN014 OVC022 21/17 A3012 RMK AO2 RAE05 SLP198 P0000 T02060172
KLFK 251646Z AUTO 35006KT 10SM SCT009 OVC014 20/18 A3013 RMK AO2 RAE05 P0000 T02000178
KLFK 251638Z AUTO 35006KT 10SM BKN009 OVC013 20/18 A3013 RMK AO2 RAE05 P0000 T02000178
KLFK 251627Z AUTO 02007KT 10SM OVC010 19/18 A3013 RMK AO2 RAE05 P0000 T01890178
KLFK 251553Z AUTO 01005KT 10SM -RA OVC007 18/18 A3013 RMK AO2 RAB31 CIG 005V010 SLP198 P0004 T01780178
KLFK 251513Z AUTO 21005KT 9SM BKN009 OVC012 19/19 A3011 RMK AO2 CIG 006V010 T01940189
KLFK 251453Z AUTO 20003KT 10SM BKN011 OVC019 19/19 A3010 RMK AO2 SLP189 T01890189 51012
KLFK 251401Z AUTO 17003KT 10SM OVC014 18/17 A3009 RMK AO2 T01830172
KLFK 251353Z AUTO 00000KT 10SM OVC016 18/17 A3009 RMK AO2 SLP186 T01780167
KLFK 251329Z AUTO 00000KT 9SM BKN014 OVC022 17/17 A3008 RMK AO2 T01720172
KLFK 251253Z AUTO 32003KT 5SM BR OVC020 17/17 A3008 RMK AO2 SLP183 T01720172
KLFK 251221Z AUTO 17003KT 9SM BKN025 OVC034 17/17 A3006 RMK AO2 T01670167
KLFK 251153Z AUTO 32003KT 10SM FEW049 FEW060 FEW110 17/17 A3006 RMK AO2 LTG DSNT E RAB05E30 SLP177 P0009 60009 70009 T01670167 10194 20167 51012
KLFK 251123Z AUTO 00000KT 5SM -RA BR SCT010 BKN047 OVC060 18/17 A3006 RMK AO2 LTG DSNT NE RAB05 P0009 T01780172
KLFK 251118Z AUTO 29004KT 2SM +RA BR FEW007 BKN012 OVC043 18/17 A3006 RMK AO2 LTG DSNT N RAB05 P0009 T01780172
KLFK 251112Z AUTO 34008KT 1 3/4SM +RA BR SCT009 BKN012 OVC020 18/18 A3008 RMK AO2 LTG DSNT N RAB05 PRESRR P0007 T01830183
KLFK 251110Z AUTO 33007KT 2 1/2SM +RA BR BKN009 BKN014 OVC022 18/18 A3008 RMK AO2 LTG DSNT N RAB05 CIG 005V012 PRESRR P0005 T01830183
KLFK 251108Z AUTO 32006KT 3SM RA BR BKN011 BKN014 OVC022 19/18 A3007 RMK AO2 LTG DSNT N RAB05 CIG 008V012 P0002 T01890183
KLFK 251053Z AUTO 00000KT 10SM FEW015 OVC022 19/18 A3006 RMK AO2 LTG DSNT N AND NW SLP174 T01890178
KLFK 251018Z AUTO 17004KT 10SM SCT010 SCT017 OVC026 19/18 A3004 RMK AO2 T01890178
KLFK 250953Z AUTO 26006KT 10SM OVC012 19/18 A3005 RMK AO2 SLP172 T01890178
KLFK 250853Z AUTO 20007KT 10SM BKN013 OVC021 19/18 A3003 RMK AO2 SLP165 T01940178 55007
KLFK 250753Z AUTO 19009G17KT 10SM BKN013 OVC022 19/18 A3002 RMK AO2 SLP163 T01940178
KLFK 250653Z AUTO 20009G21KT 10SM OVC012 19/18 A3003 RMK AO2 SLP166 T01940178
KLFK 250553Z AUTO 19007KT 10SM OVC014 19/18 A3005 RMK AO2 SLP172 T01890178 10228 20178 402500128 50001
KLFK 250453Z AUTO 18006KT 10SM OVC014 18/18 A3006 RMK AO2 SLP175 T01830178
KLFK 250440Z AUTO 17006KT 10SM BKN013 18/18 A3006 RMK AO2 T01830178
KLFK 250353Z AUTO 17006KT 9SM CLR 18/18 A3006 RMK AO2 SLP175 T01830178
KLFK 250253Z AUTO 17007KT 10SM CLR 19/18 A3005 RMK AO2 SLP171 T01890178 53010
KLFK 250153Z AUTO 16008KT 10SM CLR 19/18 A3003 RMK AO2 SLP165 T01940178
KLFK 250053Z AUTO 16005KT 10SM FEW028 21/17 A3002 RMK AO2 SLP163 T02060172
KLFK 242353Z AUTO 16010KT 10SM FEW039 23/17 A3001 RMK AO2 SLP161 T02280172 10250 20211 56010
KLFK 242253Z AUTO 19006KT 10SM FEW037 FEW050 BKN060 24/17 A3002 RMK AO2 SLP163 T02390172
KLFK 242153Z AUTO 17011KT 10SM SCT039 SCT049 BKN060 24/17 A3003 RMK AO2 SLP166 T02440167
KLFK 242053Z AUTO 17010KT 10SM SCT035 OVC060 24/17 A3004 RMK AO2 SLP171 T02440172 58014
KLFK 241953Z AUTO 17009KT 10SM FEW030 SCT038 OVC060 24/17 A3006 RMK AO2 SLP177 T02390172
KLFK 241853Z AUTO 21005KT 10SM FEW025 SCT040 OVC048 22/17 A3008 RMK AO2 SLP184 T02220172
KLFK 241849Z AUTO 21006KT 10SM FEW025 BKN040 OVC048 22/17 A3009 RMK AO2
KLFK 241823Z AUTO 21009KT 10SM BKN024 OVC036 21/17 A3010 RMK AO2 T02110167
KLFK 241753Z AUTO 19007KT 10SM FEW022 SCT028 OVC036 22/17 A3011 RMK AO2 SLP192 T02170172 10217 20133 58010
KLFK 241653Z AUTO VRB05KT 10SM BKN020 OVC033 21/17 A3013 RMK AO2 SLP198 T02060172
KLFK 241603Z AUTO 18007KT 10SM BKN016 BKN024 OVC034 19/17 A3014 RMK AO2 T01940167
KLFK 241553Z AUTO 19006KT 10SM FEW016 SCT024 OVC034 19/17 A3014 RMK AO2 SLP202 T01940167
KLFK 241527Z AUTO 17007KT 10SM FEW015 OVC034 19/17 A3013 RMK AO2 T01890167
KLFK 241453Z AUTO 19006KT 10SM OVC012 18/16 A3014 RMK AO2 SLP202 T01780161 51015
KLFK 241420Z AUTO 18005KT 10SM BKN009 17/16 A3013 RMK AO2 CIG 006V011 T01670156
KLFK 241353Z AUTO 17006KT 10SM FEW006 16/15 A3012 RMK AO2 SLP196 T01560150
KLFK 241348Z AUTO 18005KT 10SM FEW006 16/15 A3011 RMK AO2
KLFK 241253Z AUTO 14005KT 6SM BR CLR 13/13 A3009 RMK AO2 SLP187 T01330133
KLFK 241153Z AUTO 14006KT 10SM CLR 13/13 A3010 RMK AO2 SLP189 T01330133 10161 20128 50002
KLFK 241141Z AUTO 14006KT 10SM SCT026 13/13 A3010 RMK AO2 T01330133
KLFK 241053Z AUTO 12003KT 10SM BKN027 OVC070 13/13 A3010 RMK AO2 SLP190 T01330128
KLFK 240953Z AUTO 13003KT 10SM CLR 13/13 A3009 RMK AO2 SLP187 T01330128
KLFK 240853Z AUTO 12004KT 10SM FEW090 13/12 A3009 RMK AO2 SLP187 T01330122 58004
KLFK 240753Z AUTO 14004KT 10SM BKN080 OVC095 14/12 A3011 RMK AO2 SLP193 T01440122
KLFK 240653Z AUTO 16006KT 10SM BKN070 OVC095 16/12 A3011 RMK AO2 SLP194 T01560122